sensor_id;sensor_type;location;lat;lon;timestamp;pressure;altitude;pressure_sealevel;temperature;humidity
22649;BME280;11491;41.942;24.220;2023-01-25T00:01:58;90756.88;;;0.70;93.33
22649;BME280;11491;41.942;24.220;2023-01-25T00:04:25;90762.09;;;0.64;93.34
22649;BME280;11491;41.942;24.220;2023-01-25T00:06:52;90760.28;;;0.65;93.05
22649;BME280;11491;41.942;24.220;2023-01-25T00:09:20;90763.72;;;0.71;93.28
22649;BME280;11491;41.942;24.220;2023-01-25T00:11:48;90758.97;;;0.68;93.07
22649;BME280;11491;41.942;24.220;2023-01-25T00:14:15;90765.28;;;0.61;93.30
22649;BME280;11491;41.942;24.220;2023-01-25T00:16:42;90768.97;;;0.55;93.18
22649;BME280;11491;41.942;24.220;2023-01-25T00:19:10;90770.53;;;0.51;93.54
22649;BME280;11491;41.942;24.220;2023-01-25T00:21:37;90769.50;;;0.57;94.04
22649;BME280;11491;41.942;24.220;2023-01-25T00:24:05;90765.56;;;0.55;93.77
22649;BME280;11491;41.942;24.220;2023-01-25T00:26:33;90764.47;;;0.56;93.46
22649;BME280;11491;41.942;24.220;2023-01-25T00:29:01;90761.84;;;0.56;93.43
22649;BME280;11491;41.942;24.220;2023-01-25T00:31:37;90771.31;;;0.52;94.01
22649;BME280;11491;41.942;24.220;2023-01-25T00:37:01;90766.31;;;0.45;93.10
22649;BME280;11491;41.942;24.220;2023-01-25T00:39:28;90771.06;;;0.48;92.98
22649;BME280;11491;41.942;24.220;2023-01-25T00:41:55;90766.88;;;0.52;93.31
22649;BME280;11491;41.942;24.220;2023-01-25T00:44:23;90764.22;;;0.57;93.05
22649;BME280;11491;41.942;24.220;2023-01-25T00:46:50;90768.69;;;0.52;92.92
22649;BME280;11491;41.942;24.220;2023-01-25T00:49:20;90774.72;;;0.47;93.18
22649;BME280;11491;41.942;24.220;2023-01-25T00:51:47;90760.53;;;0.48;93.36
22649;BME280;11491;41.942;24.220;2023-01-25T00:54:14;90764.22;;;0.57;93.16
22649;BME280;11491;41.942;24.220;2023-01-25T00:56:40;90760.78;;;0.52;93.09
22649;BME280;11491;41.942;24.220;2023-01-25T00:59:08;90762.63;;;0.36;93.25
22649;BME280;11491;41.942;24.220;2023-01-25T01:01:37;90756.28;;;0.42;92.92
22649;BME280;11491;41.942;24.220;2023-01-25T01:04:04;90757.38;;;0.46;92.91
22649;BME280;11491;41.942;24.220;2023-01-25T01:06:30;90751.56;;;0.49;93.04
22649;BME280;11491;41.942;24.220;2023-01-25T01:08:57;90752.09;;;0.51;92.84
22649;BME280;11491;41.942;24.220;2023-01-25T01:11:24;90757.13;;;0.58;92.56
22649;BME280;11491;41.942;24.220;2023-01-25T01:13:51;90746.84;;;0.56;92.41
22649;BME280;11491;41.942;24.220;2023-01-25T01:16:17;90748.94;;;0.64;91.89
22649;BME280;11491;41.942;24.220;2023-01-25T01:18:45;90752.13;;;0.67;91.55
22649;BME280;11491;41.942;24.220;2023-01-25T01:21:13;90743.19;;;0.73;91.46
22649;BME280;11491;41.942;24.220;2023-01-25T01:23:40;90742.13;;;0.74;91.68
22649;BME280;11491;41.942;24.220;2023-01-25T01:26:09;90744.22;;;0.72;91.40
22649;BME280;11491;41.942;24.220;2023-01-25T01:28:36;90737.91;;;0.78;91.24
22649;BME280;11491;41.942;24.220;2023-01-25T01:31:05;90729.22;;;0.77;90.89
22649;BME280;11491;41.942;24.220;2023-01-25T01:33:33;90731.06;;;0.77;90.97
22649;BME280;11491;41.942;24.220;2023-01-25T01:36:07;90733.16;;;0.85;90.84
22649;BME280;11491;41.942;24.220;2023-01-25T01:38:33;90727.91;;;0.75;90.93
22649;BME280;11491;41.942;24.220;2023-01-25T01:41:00;90729.47;;;0.76;90.88
22649;BME280;11491;41.942;24.220;2023-01-25T01:43:27;90727.63;;;0.81;90.72
22649;BME280;11491;41.942;24.220;2023-01-25T01:45:57;90731.56;;;0.84;90.39
22649;BME280;11491;41.942;24.220;2023-01-25T01:48:31;90727.91;;;0.85;90.63
22649;BME280;11491;41.942;24.220;2023-01-25T01:51:02;90723.16;;;0.82;90.49
22649;BME280;11491;41.942;24.220;2023-01-25T01:53:33;90726.84;;;0.81;90.23
22649;BME280;11491;41.942;24.220;2023-01-25T01:56:02;90728.41;;;0.82;89.42
22649;BME280;11491;41.942;24.220;2023-01-25T01:58:31;90728.94;;;0.79;90.33
22649;BME280;11491;41.942;24.220;2023-01-25T02:00:59;90719.50;;;0.73;90.85
22649;BME280;11491;41.942;24.220;2023-01-25T02:03:26;90722.66;;;0.80;90.56
22649;BME280;11491;41.942;24.220;2023-01-25T02:05:59;90720.00;;;0.80;89.98
22649;BME280;11491;41.942;24.220;2023-01-25T02:08:29;90717.88;;;0.82;89.56
22649;BME280;11491;41.942;24.220;2023-01-25T02:10:59;90720.53;;;0.77;90.20
22649;BME280;11491;41.942;24.220;2023-01-25T02:13:26;90716.03;;;0.67;90.15
22649;BME280;11491;41.942;24.220;2023-01-25T02:15:53;90718.41;;;0.69;91.09
22649;BME280;11491;41.942;24.220;2023-01-25T02:18:22;90716.84;;;0.73;90.81
22649;BME280;11491;41.942;24.220;2023-01-25T02:20:51;90717.88;;;0.72;90.72
22649;BME280;11491;41.942;24.220;2023-01-25T02:23:23;90713.16;;;0.69;90.46
22649;BME280;11491;41.942;24.220;2023-01-25T02:25:53;90718.41;;;0.69;90.39
22649;BME280;11491;41.942;24.220;2023-01-25T02:28:24;90717.38;;;0.75;90.15
22649;BME280;11491;41.942;24.220;2023-01-25T02:30:52;90713.16;;;0.79;90.40
22649;BME280;11491;41.942;24.220;2023-01-25T02:33:21;90706.84;;;0.80;90.05
22649;BME280;11491;41.942;24.220;2023-01-25T02:35:51;90715.25;;;0.77;90.47
22649;BME280;11491;41.942;24.220;2023-01-25T02:38:20;90709.47;;;0.80;90.34
22649;BME280;11491;41.942;24.220;2023-01-25T02:40:49;90707.63;;;0.80;89.90
22649;BME280;11491;41.942;24.220;2023-01-25T02:43:19;90713.66;;;0.86;90.28
22649;BME280;11491;41.942;24.220;2023-01-25T02:45:49;90711.59;;;0.78;89.94
22649;BME280;11491;41.942;24.220;2023-01-25T02:48:18;90711.06;;;0.71;89.83
22649;BME280;11491;41.942;24.220;2023-01-25T02:50:44;90711.59;;;0.62;90.63
22649;BME280;11491;41.942;24.220;2023-01-25T02:53:11;90718.97;;;0.55;91.25
22649;BME280;11491;41.942;24.220;2023-01-25T02:55:38;90706.84;;;0.59;91.62
22649;BME280;11491;41.942;24.220;2023-01-25T02:58:04;90705.25;;;0.63;91.05
22649;BME280;11491;41.942;24.220;2023-01-25T03:00:33;90712.38;;;0.68;90.78
22649;BME280;11491;41.942;24.220;2023-01-25T03:02:59;90712.63;;;0.67;90.67
22649;BME280;11491;41.942;24.220;2023-01-25T03:05:26;90707.91;;;0.69;90.66
22649;BME280;11491;41.942;24.220;2023-01-25T03:07:53;90716.03;;;0.67;90.90
22649;BME280;11491;41.942;24.220;2023-01-25T03:10:20;90707.38;;;0.61;90.90
22649;BME280;11491;41.942;24.220;2023-01-25T03:12:46;90715.78;;;0.58;90.46
22649;BME280;11491;41.942;24.220;2023-01-25T03:15:13;90712.38;;;0.58;90.41
22649;BME280;11491;41.942;24.220;2023-01-25T03:17:41;90703.69;;;0.52;90.19
22649;BME280;11491;41.942;24.220;2023-01-25T03:20:09;90707.38;;;0.51;90.24
22649;BME280;11491;41.942;24.220;2023-01-25T03:22:36;90712.09;;;0.49;89.87
22649;BME280;11491;41.942;24.220;2023-01-25T03:25:03;90714.47;;;0.46;90.08
22649;BME280;11491;41.942;24.220;2023-01-25T03:27:30;90715.50;;;0.50;89.88
22649;BME280;11491;41.942;24.220;2023-01-25T03:29:57;90715.25;;;0.46;89.95
22649;BME280;11491;41.942;24.220;2023-01-25T03:32:24;90706.31;;;0.47;89.93
22649;BME280;11491;41.942;24.220;2023-01-25T03:34:52;90709.47;;;0.49;89.65
22649;BME280;11491;41.942;24.220;2023-01-25T03:37:19;90699.47;;;0.56;89.69
22649;BME280;11491;41.942;24.220;2023-01-25T03:39:46;90704.19;;;0.59;89.64
22649;BME280;11491;41.942;24.220;2023-01-25T03:42:12;90705.00;;;0.50;89.39
22649;BME280;11491;41.942;24.220;2023-01-25T03:44:39;90714.72;;;0.49;89.95
22649;BME280;11491;41.942;24.220;2023-01-25T03:47:06;90711.59;;;0.52;89.46
22649;BME280;11491;41.942;24.220;2023-01-25T03:49:33;90707.91;;;0.48;89.28
22649;BME280;11491;41.942;24.220;2023-01-25T03:52:01;90711.06;;;0.50;88.84
22649;BME280;11491;41.942;24.220;2023-01-25T03:54:28;90708.44;;;0.55;88.85
22649;BME280;11491;41.942;24.220;2023-01-25T03:56:55;90702.09;;;0.61;88.07
22649;BME280;11491;41.942;24.220;2023-01-25T03:59:21;90694.22;;;0.56;88.44
22649;BME280;11491;41.942;24.220;2023-01-25T04:01:48;90701.31;;;0.51;88.45
22649;BME280;11491;41.942;24.220;2023-01-25T04:04:15;90707.91;;;0.38;88.90
22649;BME280;11491;41.942;24.220;2023-01-25T04:06:42;90693.97;;;0.37;88.62
22649;BME280;11491;41.942;24.220;2023-01-25T04:09:10;90706.84;;;0.39;88.52
22649;BME280;11491;41.942;24.220;2023-01-25T04:11:38;90705.28;;;0.43;88.70
22649;BME280;11491;41.942;24.220;2023-01-25T04:14:05;90685.25;;;0.37;88.84
22649;BME280;11491;41.942;24.220;2023-01-25T04:16:32;90700.00;;;0.43;88.53
22649;BME280;11491;41.942;24.220;2023-01-25T04:19:00;90693.69;;;0.39;88.39
22649;BME280;11491;41.942;24.220;2023-01-25T04:21:27;90703.16;;;0.35;88.39
22649;BME280;11491;41.942;24.220;2023-01-25T04:23:53;90701.56;;;0.34;88.94
22649;BME280;11491;41.942;24.220;2023-01-25T04:26:21;90706.31;;;0.37;89.02
22649;BME280;11491;41.942;24.220;2023-01-25T04:28:48;90708.94;;;0.32;88.84
22649;BME280;11491;41.942;24.220;2023-01-25T04:31:15;90707.91;;;0.28;88.52
22649;BME280;11491;41.942;24.220;2023-01-25T04:33:42;90704.72;;;0.26;89.07
22649;BME280;11491;41.942;24.220;2023-01-25T04:36:09;90712.63;;;0.31;89.30
22649;BME280;11491;41.942;24.220;2023-01-25T04:38:35;90721.06;;;0.33;89.30
22649;BME280;11491;41.942;24.220;2023-01-25T04:41:02;90715.50;;;0.34;88.80
22649;BME280;11491;41.942;24.220;2023-01-25T04:43:31;90720.22;;;0.27;89.24
22649;BME280;11491;41.942;24.220;2023-01-25T04:46:00;90713.94;;;0.28;89.51
22649;BME280;11491;41.942;24.220;2023-01-25T04:48:27;90721.03;;;0.23;89.30
22649;BME280;11491;41.942;24.220;2023-01-25T04:50:54;90717.59;;;0.17;89.70
22649;BME280;11491;41.942;24.220;2023-01-25T04:53:20;90719.97;;;0.18;89.39
22649;BME280;11491;41.942;24.220;2023-01-25T04:55:48;90717.34;;;0.13;89.91
22649;BME280;11491;41.942;24.220;2023-01-25T04:58:15;90713.09;;;0.07;89.49
22649;BME280;11491;41.942;24.220;2023-01-25T05:00:43;90712.59;;;0.00;89.70
22649;BME280;11491;41.942;24.220;2023-01-25T05:03:09;90709.91;;;-0.10;90.39
22649;BME280;11491;41.942;24.220;2023-01-25T05:05:36;90713.59;;;-0.06;90.37
22649;BME280;11491;41.942;24.220;2023-01-25T05:08:03;90711.25;;;-0.03;90.35
22649;BME280;11491;41.942;24.220;2023-01-25T05:10:30;90718.88;;;-0.06;90.88
22649;BME280;11491;41.942;24.220;2023-01-25T05:12:56;90717.78;;;-0.10;90.56
22649;BME280;11491;41.942;24.220;2023-01-25T05:15:23;90712.59;;;0.00;90.64
22649;BME280;11491;41.942;24.220;2023-01-25T05:17:51;90712.53;;;-0.05;89.92
22649;BME280;11491;41.942;24.220;2023-01-25T05:20:18;90712.03;;;-0.07;90.42
22649;BME280;11491;41.942;24.220;2023-01-25T05:22:45;90712.03;;;-0.07;90.02
22649;BME280;11491;41.942;24.220;2023-01-25T05:25:11;90712.53;;;-0.10;89.82
22649;BME280;11491;41.942;24.220;2023-01-25T05:27:52;90713.06;;;-0.08;90.47
22649;BME280;11491;41.942;24.220;2023-01-25T05:30:19;90714.91;;;-0.09;89.85
22649;BME280;11491;41.942;24.220;2023-01-25T05:32:47;90720.13;;;-0.24;90.41
22649;BME280;11491;41.942;24.220;2023-01-25T05:35:15;90719.41;;;-0.09;90.85
22649;BME280;11491;41.942;24.220;2023-01-25T05:37:42;90726.22;;;-0.08;89.89
22649;BME280;11491;41.942;24.220;2023-01-25T05:40:10;90728.28;;;-0.20;89.64
22649;BME280;11491;41.942;24.220;2023-01-25T05:42:37;90729.34;;;-0.16;90.05
22649;BME280;11491;41.942;24.220;2023-01-25T05:45:04;90725.13;;;-0.17;89.42
22649;BME280;11491;41.942;24.220;2023-01-25T05:47:31;90737.00;;;-0.15;89.75
22649;BME280;11491;41.942;24.220;2023-01-25T05:49:58;90738.25;;;-0.28;90.25
22649;BME280;11491;41.942;24.220;2023-01-25T05:52:26;90732.47;;;-0.30;90.54
22649;BME280;11491;41.942;24.220;2023-01-25T05:54:53;90732.44;;;-0.35;91.30
22649;BME280;11491;41.942;24.220;2023-01-25T05:57:20;90725.59;;;-0.36;90.71
22649;BME280;11491;41.942;24.220;2023-01-25T05:59:46;90721.41;;;-0.37;91.33
22649;BME280;11491;41.942;24.220;2023-01-25T06:02:13;90726.16;;;-0.29;91.45
22649;BME280;11491;41.942;24.220;2023-01-25T06:04:40;90686.66;;;-0.54;90.73
22649;BME280;11491;41.942;24.220;2023-01-25T06:07:06;90734.06;;;-0.24;90.82
22649;BME280;11491;41.942;24.220;2023-01-25T06:09:34;90729.03;;;-0.30;90.31
22649;BME280;11491;41.942;24.220;2023-01-25T06:12:01;90729.88;;;-0.25;90.45
22649;BME280;11491;41.942;24.220;2023-01-25T06:14:30;90724.09;;;-0.22;90.35
22649;BME280;11491;41.942;24.220;2023-01-25T06:16:57;90722.00;;;-0.14;90.20
22649;BME280;11491;41.942;24.220;2023-01-25T06:19:23;90719.41;;;-0.09;90.02
22649;BME280;11491;41.942;24.220;2023-01-25T06:21:50;90715.13;;;-0.20;89.94
22649;BME280;11491;41.942;24.220;2023-01-25T06:24:17;90714.13;;;-0.19;89.41
22649;BME280;11491;41.942;24.220;2023-01-25T06:26:45;90720.69;;;-0.17;89.92
22649;BME280;11491;41.942;24.220;2023-01-25T06:29:12;90709.13;;;-0.16;89.56
22649;BME280;11491;41.942;24.220;2023-01-25T06:31:38;90723.03;;;-0.15;89.71
22649;BME280;11491;41.942;24.220;2023-01-25T06:34:05;90718.31;;;-0.13;89.28
22649;BME280;11491;41.942;24.220;2023-01-25T06:36:33;90720.69;;;-0.17;89.54
22649;BME280;11491;41.942;24.220;2023-01-25T06:39:00;90716.22;;;-0.11;89.30
22649;BME280;11491;41.942;24.220;2023-01-25T06:41:26;90720.44;;;-0.05;89.19
22649;BME280;11491;41.942;24.220;2023-01-25T06:43:55;90720.69;;;-0.12;89.38
22649;BME280;11491;41.942;24.220;2023-01-25T06:46:21;90718.06;;;-0.17;89.37
22649;BME280;11491;41.942;24.220;2023-01-25T06:48:48;90715.41;;;-0.22;89.49
22649;BME280;11491;41.942;24.220;2023-01-25T06:51:15;90709.03;;;-0.41;89.00
22649;BME280;11491;41.942;24.220;2023-01-25T06:53:44;90724.06;;;-0.27;89.10
22649;BME280;11491;41.942;24.220;2023-01-25T06:56:13;90723.56;;;-0.24;89.73
22649;BME280;11491;41.942;24.220;2023-01-25T06:58:40;90732.19;;;-0.28;88.99
22649;BME280;11491;41.942;24.220;2023-01-25T07:01:11;90726.16;;;-0.29;89.47
22649;BME280;11491;41.942;24.220;2023-01-25T07:03:38;90721.44;;;-0.32;89.26
22649;BME280;11491;41.942;24.220;2023-01-25T07:06:07;90729.31;;;-0.32;89.08
22649;BME280;11491;41.942;24.220;2023-01-25T07:08:35;90723.53;;;-0.34;88.96
22649;BME280;11491;41.942;24.220;2023-01-25T07:11:05;90730.88;;;-0.31;89.49
22649;BME280;11491;41.942;24.220;2023-01-25T07:13:33;90731.41;;;-0.29;89.14
22649;BME280;11491;41.942;24.220;2023-01-25T07:16:02;90738.78;;;-0.26;89.58
22649;BME280;11491;41.942;24.220;2023-01-25T07:18:31;90739.84;;;-0.27;89.49
22649;BME280;11491;41.942;24.220;2023-01-25T07:21:02;90730.38;;;-0.23;89.27
22649;BME280;11491;41.942;24.220;2023-01-25T07:23:30;90734.63;;;-0.16;89.03
22649;BME280;11491;41.942;24.220;2023-01-25T07:25:58;90734.09;;;-0.13;89.19
22649;BME280;11491;41.942;24.220;2023-01-25T07:28:25;90729.91;;;-0.04;88.75
22649;BME280;11491;41.942;24.220;2023-01-25T07:30:52;90735.19;;;0.01;88.25
22649;BME280;11491;41.942;24.220;2023-01-25T07:33:19;90726.75;;;-0.01;88.22
22649;BME280;11491;41.942;24.220;2023-01-25T07:35:47;90725.19;;;-0.02;88.11
22649;BME280;11491;41.942;24.220;2023-01-25T07:38:15;90730.47;;;0.08;88.14
22649;BME280;11491;41.942;24.220;2023-01-25T07:40:42;90738.59;;;-0.04;87.37
22649;BME280;11491;41.942;24.220;2023-01-25T07:43:09;90737.81;;;-0.04;87.93
22649;BME280;11491;41.942;24.220;2023-01-25T07:45:36;90736.72;;;-0.08;88.54
22649;BME280;11491;41.942;24.220;2023-01-25T07:48:07;90735.19;;;0.01;88.09
22649;BME280;11491;41.942;24.220;2023-01-25T07:50:35;90744.66;;;0.07;88.55
22649;BME280;11491;41.942;24.220;2023-01-25T07:53:03;90744.94;;;0.06;87.77
22649;BME280;11491;41.942;24.220;2023-01-25T07:55:30;90736.78;;;0.07;87.99
22649;BME280;11491;41.942;24.220;2023-01-25T07:57:56;90738.91;;;0.10;88.25
22649;BME280;11491;41.942;24.220;2023-01-25T08:00:23;90744.16;;;0.10;87.74
22649;BME280;11491;41.942;24.220;2023-01-25T08:02:50;90738.91;;;0.20;87.91
22649;BME280;11491;41.942;24.220;2023-01-25T08:05:17;90735.75;;;0.18;87.68
22649;BME280;11491;41.942;24.220;2023-01-25T08:07:44;90737.88;;;0.27;87.46
22649;BME280;11491;41.942;24.220;2023-01-25T08:10:12;90739.47;;;0.28;87.73
22649;BME280;11491;41.942;24.220;2023-01-25T08:12:39;90738.41;;;0.34;86.82
22649;BME280;11491;41.942;24.220;2023-01-25T08:15:10;90743.66;;;0.39;87.29
22649;BME280;11491;41.942;24.220;2023-01-25T08:17:37;90733.69;;;0.41;86.98
22649;BME280;11491;41.942;24.220;2023-01-25T08:20:04;90735.25;;;0.42;86.85
22649;BME280;11491;41.942;24.220;2023-01-25T08:22:31;90735.25;;;0.42;86.31
22649;BME280;11491;41.942;24.220;2023-01-25T08:24:58;90738.41;;;0.44;86.65
22649;BME280;11491;41.942;24.220;2023-01-25T08:27:27;90741.56;;;0.46;86.56
22649;BME280;11491;41.942;24.220;2023-01-25T08:29:54;90741.56;;;0.41;86.09
22649;BME280;11491;41.942;24.220;2023-01-25T08:32:21;90745.28;;;0.45;86.25
22649;BME280;11491;41.942;24.220;2023-01-25T08:34:48;90736.84;;;0.43;87.20
22649;BME280;11491;41.942;24.220;2023-01-25T08:37:14;90739.47;;;0.38;86.39
22649;BME280;11491;41.942;24.220;2023-01-25T08:39:41;90747.63;;;0.41;85.99
22649;BME280;11491;41.942;24.220;2023-01-25T08:42:08;90741.03;;;0.39;86.52
22649;BME280;11491;41.942;24.220;2023-01-25T08:44:36;90743.41;;;0.40;86.76
22649;BME280;11491;41.942;24.220;2023-01-25T08:47:03;90735.78;;;0.39;86.44
22649;BME280;11491;41.942;24.220;2023-01-25T08:49:30;90731.28;;;0.34;86.26
22649;BME280;11491;41.942;24.220;2023-01-25T08:51:58;90730.50;;;0.39;86.19
22649;BME280;11491;41.942;24.220;2023-01-25T08:54:25;90722.63;;;0.34;86.72
22649;BME280;11491;41.942;24.220;2023-01-25T08:56:52;90716.28;;;0.30;86.43
22649;BME280;11491;41.942;24.220;2023-01-25T08:59:19;90718.16;;;0.39;86.61
22649;BME280;11491;41.942;24.220;2023-01-25T09:01:47;90718.97;;;0.50;87.36
22649;BME280;11491;41.942;24.220;2023-01-25T09:04:13;90714.72;;;0.49;86.94
22649;BME280;11491;41.942;24.220;2023-01-25T09:06:40;90723.44;;;0.55;86.29
22649;BME280;11491;41.942;24.220;2023-01-25T09:09:07;90710.00;;;0.56;86.57
22649;BME280;11491;41.942;24.220;2023-01-25T09:11:34;90708.97;;;0.52;86.59
22649;BME280;11491;41.942;24.220;2023-01-25T09:14:02;90714.47;;;0.56;86.83
22649;BME280;11491;41.942;24.220;2023-01-25T09:16:29;90704.72;;;0.56;87.15
22649;BME280;11491;41.942;24.220;2023-01-25T09:18:59;90702.38;;;0.65;87.13
22649;BME280;11491;41.942;24.220;2023-01-25T09:21:26;90701.56;;;0.64;87.34
22649;BME280;11491;41.942;24.220;2023-01-25T09:23:54;90697.13;;;0.65;87.18
22649;BME280;11491;41.942;24.220;2023-01-25T09:26:21;90701.59;;;0.75;86.43
22649;BME280;11491;41.942;24.220;2023-01-25T09:28:49;90690.00;;;0.71;86.05
22649;BME280;11491;41.942;24.220;2023-01-25T09:31:17;90684.19;;;0.74;86.64
22649;BME280;11491;41.942;24.220;2023-01-25T09:33:45;90688.16;;;0.66;86.17
22649;BME280;11491;41.942;24.220;2023-01-25T09:36:13;90681.03;;;0.72;86.45
22649;BME280;11491;41.942;24.220;2023-01-25T09:38:40;90681.56;;;0.69;86.62
22649;BME280;11491;41.942;24.220;2023-01-25T09:41:13;90667.09;;;0.76;86.45
22649;BME280;11491;41.942;24.220;2023-01-25T09:44:07;90672.09;;;0.83;86.31
22649;BME280;11491;41.942;24.220;2023-01-25T09:46:39;90666.84;;;0.73;86.02
22649;BME280;11491;41.942;24.220;2023-01-25T09:49:18;90663.91;;;0.84;85.64
22649;BME280;11491;41.942;24.220;2023-01-25T09:52:02;90670.50;;;0.92;85.33
22649;BME280;11491;41.942;24.220;2023-01-25T09:54:36;90663.13;;;0.84;85.59
22649;BME280;11491;41.942;24.220;2023-01-25T09:57:08;90667.34;;;0.90;85.74
22649;BME280;11491;41.942;24.220;2023-01-25T09:59:40;90657.06;;;0.89;85.36
22649;BME280;11491;41.942;24.220;2023-01-25T10:02:29;90668.91;;;0.81;85.60
22649;BME280;11491;41.942;24.220;2023-01-25T10:05:03;90666.31;;;0.76;85.67
22649;BME280;11491;41.942;24.220;2023-01-25T10:07:54;90659.72;;;0.68;85.80
22649;BME280;11491;41.942;24.220;2023-01-25T10:10:29;90657.09;;;0.68;85.25
22649;BME280;11491;41.942;24.220;2023-01-25T10:12:58;90651.03;;;0.73;85.68
22649;BME280;11491;41.942;24.220;2023-01-25T10:15:29;90629.97;;;0.73;85.83
22649;BME280;11491;41.942;24.220;2023-01-25T10:18:03;90637.31;;;0.81;85.83
22649;BME280;11491;41.942;24.220;2023-01-25T10:20:37;90638.63;;;0.83;85.67
22649;BME280;11491;41.942;24.220;2023-01-25T10:23:26;90629.41;;;0.86;85.48
22649;BME280;11491;41.942;24.220;2023-01-25T10:25:58;90632.06;;;0.81;85.05
22649;BME280;11491;41.942;24.220;2023-01-25T10:28:33;90634.94;;;0.79;85.14
22649;BME280;11491;41.942;24.220;2023-01-25T10:31:05;90627.31;;;0.88;85.91
22649;BME280;11491;41.942;24.220;2023-01-25T10:33:35;90621.00;;;0.84;84.00
22649;BME280;11491;41.942;24.220;2023-01-25T10:36:03;90616.00;;;0.88;85.02
22649;BME280;11491;41.942;24.220;2023-01-25T10:38:35;90606.25;;;0.88;84.66
22649;BME280;11491;41.942;24.220;2023-01-25T10:41:09;90617.00;;;1.02;84.67
22649;BME280;11491;41.942;24.220;2023-01-25T10:43:37;90606.72;;;1.05;83.91
22649;BME280;11491;41.942;24.220;2023-01-25T10:46:16;90593.03;;;1.03;84.02
22649;BME280;11491;41.942;24.220;2023-01-25T10:48:44;90587.72;;;1.14;84.74
22649;BME280;11491;41.942;24.220;2023-01-25T10:51:27;90582.44;;;1.14;83.94
22649;BME280;11491;41.942;24.220;2023-01-25T10:54:01;90582.97;;;1.16;84.38
22649;BME280;11491;41.942;24.220;2023-01-25T10:56:27;90596.13;;;1.16;84.07
22649;BME280;11491;41.942;24.220;2023-01-25T10:59:06;90577.72;;;1.11;83.38
22649;BME280;11491;41.942;24.220;2023-01-25T11:01:35;90586.19;;;1.02;83.76
22649;BME280;11491;41.942;24.220;2023-01-25T11:04:02;90581.97;;;0.96;83.87
22649;BME280;11491;41.942;24.220;2023-01-25T11:06:48;90573.28;;;1.01;84.71
22649;BME280;11491;41.942;24.220;2023-01-25T11:09:47;90568.28;;;1.04;85.09
22649;BME280;11491;41.942;24.220;2023-01-25T11:12:16;90561.97;;;1.00;84.07
22649;BME280;11491;41.942;24.220;2023-01-25T11:14:44;90562.47;;;1.07;83.68
22649;BME280;11491;41.942;24.220;2023-01-25T11:17:23;90565.63;;;1.10;83.54
22649;BME280;11491;41.942;24.220;2023-01-25T11:20:14;90555.59;;;1.06;83.24
22649;BME280;11491;41.942;24.220;2023-01-25T11:22:48;90548.28;;;0.93;83.94
22649;BME280;11491;41.942;24.220;2023-01-25T11:25:29;90550.41;;;0.91;84.32
22649;BME280;11491;41.942;24.220;2023-01-25T11:28:13;90548.03;;;1.00;84.47
22649;BME280;11491;41.942;24.220;2023-01-25T11:30:41;90551.50;;;0.80;84.00
22649;BME280;11491;41.942;24.220;2023-01-25T11:33:09;90546.25;;;0.80;85.18
22649;BME280;11491;41.942;24.220;2023-01-25T11:35:50;90546.75;;;0.82;85.56
22649;BME280;11491;41.942;24.220;2023-01-25T11:38:21;90539.66;;;0.82;85.47
22649;BME280;11491;41.942;24.220;2023-01-25T11:40:54;90532.00;;;0.81;85.38
22649;BME280;11491;41.942;24.220;2023-01-25T11:43:35;90539.94;;;0.76;85.82
22649;BME280;11491;41.942;24.220;2023-01-25T11:46:20;90532.06;;;0.71;86.69
22649;BME280;11491;41.942;24.220;2023-01-25T11:49:02;90535.22;;;0.68;87.14
22649;BME280;11491;41.942;24.220;2023-01-25T11:51:35;90524.13;;;0.76;86.27
22649;BME280;11491;41.942;24.220;2023-01-25T11:57:28;90526.25;;;0.74;86.76
22649;BME280;11491;41.942;24.220;2023-01-25T12:00:13;90519.94;;;0.75;86.35
22649;BME280;11491;41.942;24.220;2023-01-25T12:03:04;90511.78;;;0.66;86.31
22649;BME280;11491;41.942;24.220;2023-01-25T12:05:44;90522.09;;;0.57;86.31
22649;BME280;11491;41.942;24.220;2023-01-25T12:08:29;90513.72;;;0.40;86.57
22649;BME280;11491;41.942;24.220;2023-01-25T12:11:05;90505.84;;;0.30;87.60
22649;BME280;11491;41.942;24.220;2023-01-25T12:13:43;90504.28;;;0.29;87.46
22649;BME280;11491;41.942;24.220;2023-01-25T12:16:24;90505.03;;;0.34;87.24
22649;BME280;11491;41.942;24.220;2023-01-25T12:19:11;90506.88;;;0.34;87.35
22649;BME280;11491;41.942;24.220;2023-01-25T12:21:55;90504.78;;;0.31;87.26
22649;BME280;11491;41.942;24.220;2023-01-25T12:24:35;90502.16;;;0.31;86.74
22649;BME280;11491;41.942;24.220;2023-01-25T12:27:13;90493.72;;;0.39;86.48
22649;BME280;11491;41.942;24.220;2023-01-25T12:29:50;90497.44;;;0.33;86.76
22649;BME280;11491;41.942;24.220;2023-01-25T12:32:23;90484.81;;;0.19;86.43
22649;BME280;11491;41.942;24.220;2023-01-25T12:35:02;90485.09;;;0.23;86.92
22649;BME280;11491;41.942;24.220;2023-01-25T12:37:35;90473.53;;;0.19;86.71
22649;BME280;11491;41.942;24.220;2023-01-25T12:40:08;90480.59;;;0.24;87.06
22649;BME280;11491;41.942;24.220;2023-01-25T12:42:41;90482.72;;;0.21;87.61
22649;BME280;11491;41.942;24.220;2023-01-25T12:45:14;90477.97;;;0.29;87.23
22649;BME280;11491;41.942;24.220;2023-01-25T12:47:46;90484.78;;;0.30;86.69
22649;BME280;11491;41.942;24.220;2023-01-25T12:50:18;90478.75;;;0.29;86.98
22649;BME280;11491;41.942;24.220;2023-01-25T12:52:50;90482.19;;;0.35;87.02
22649;BME280;11491;41.942;24.220;2023-01-25T12:55:18;90484.78;;;0.30;86.13
22649;BME280;11491;41.942;24.220;2023-01-25T12:57:51;90471.66;;;0.19;86.43
22649;BME280;11491;41.942;24.220;2023-01-25T13:00:27;90490.09;;;0.19;86.09
22649;BME280;11491;41.942;24.220;2023-01-25T13:03:13;90488.50;;;0.18;86.99
22649;BME280;11491;41.942;24.220;2023-01-25T13:05:45;90489.56;;;0.23;87.10
22649;BME280;11491;41.942;24.220;2023-01-25T13:08:26;90491.69;;;0.10;86.95
22649;BME280;11491;41.942;24.220;2023-01-25T13:11:05;90484.31;;;0.02;87.69
22649;BME280;11491;41.942;24.220;2023-01-25T13:13:33;90495.38;;;0.09;87.80
22649;BME280;11491;41.942;24.220;2023-01-25T13:16:23;90486.47;;;0.00;87.58
22649;BME280;11491;41.942;24.220;2023-01-25T13:18:50;90489.84;;;0.06;87.70